This is the latest recevied weather packets stored in our database for station/object IA5KRO-13. If no packets are shown the sender has not sent any weather packets the latest 10 day(s).
| Time | Temp. | Humidity | Pressure | Rain* | Wind** | Luminosity | Snow |
|---|---|---|---|---|---|---|---|
| 1777840224 | 15° C | 63% | 1026.1 hPa | 0 mm | - | - | - |
| 1777839909 | 15° C | 65% | 1026.1 hPa | 0 mm | - | - | - |
| 1777839612 | 15° C | 66% | 1026.1 hPa | 0 mm | - | - | - |
| 1777839312 | 15° C | 64% | 1026.1 hPa | 0 mm | - | - | - |
| 1777838109 | 15° C | 66% | 1026.1 hPa | 0 mm | - | - | - |
| 1777837812 | 15° C | 65% | 1026.1 hPa | 0 mm | - | - | - |
| 1777835108 | 15° C | 62% | 1025.7 hPa | 0 mm | - | - | - |
| 1777834829 | 16.11° C | 69% | 1025.7 hPa | 0 mm | - | - | - |
| 1777833613 | 16.11° C | 69% | 1025.7 hPa | 0 mm | - | - | - |
| 1777833309 | 16.11° C | 76% | 1025.7 hPa | 0 mm | - | - | - |
| 1777833022 | 16.11° C | 76% | 1025.7 hPa | 0 mm | - | - | - |
| 1777830909 | 17.78° C | 70% | 1025.7 hPa | 0 mm | - | - | - |
| 1777829709 | 18.89° C | 69% | 1025.4 hPa | 0 mm | - | - | - |
| 1777828214 | 18.89° C | 66% | 1025.7 hPa | 0 mm | - | - | - |
| 1777827630 | 20° C | 62% | 1025.7 hPa | 0 mm | - | - | - |
| 1777827013 | 20° C | 60% | 1025.4 hPa | 0 mm | - | - | - |
| 1777823412 | 22.78° C | 55% | 1025.7 hPa | 0 mm | - | - | - |
| 1777821612 | 23.89° C | 54% | 1025.7 hPa | 0 mm | - | - | - |
| 1777819512 | 22.78° C | 56% | 1026.1 hPa | 0 mm | - | - | - |
| 1777818622 | 22.78° C | 55% | 1026.1 hPa | 0 mm | - | - | - |
| 1777817412 | 25° C | 48% | 1026.1 hPa | 0 mm | - | - | - |
| 1777811422 | 25° C | 43% | 1027.8 hPa | 0 mm | - | - | - |
| 1777809012 | 23.89° C | 49% | 1028.1 hPa | 0 mm | - | - | - |
| 1777807822 | 23.89° C | 50% | 1028.1 hPa | 0 mm | - | - | - |
| 1777807212 | 23.89° C | 51% | 1028.1 hPa | 0 mm | - | - | - |
* Rain latest hour (hover to see other rain measurements)
** Current wind speed in m/s (hover to see current wind gust speed)